Terminal Aerodrome Forecast
Issued by NWS

Home | Current Version | Previous Version | Graphics & Text | Print | Product List | Glossary On
Versions: 1 2 3 4 5 6 7 8 9 10 11 12 13 14 15 16 17 18
000
FTUS42 KMHX 292322
TAFOAJ
TAF
KOAJ 292322Z 3000/3024 20008KT P6SM SCT030 OVC060
     FM300700 19007KT 6SM BR SCT010 BKN025
     FM301500 20014G25KT P6SM BKN035
     FM302200 19013G23KT P6SM VCSH BKN030
      AMD LTD TO CLD VIS AND WIND=

USA.gov is the U.S. government's official web portal to all federal, state and local government web resources and services.